Yeager Airport
KCRW : now visible

Airfield :











YOU CAN JOIN US ON...

 
LOGIN :

Register | Disclaimer

   EN    FR    IT 

 









Legend :    VFR   Marginal VFR   IFR   Intensive IFR   Very Intensive IFR
Visi :
Ceiling :
>= 8 km
>= 3000ft
5 to 8 km
1000 to 3000 ft
1500m to 5 km
500 to 1000 ft
800 to 1500m
200 to 500 ft
< 800m
< 200 ft
Symbols :   Thunderstorms  Fog  Heavy snow  Heavy precipitations  Wind > 20 kt







- Airport Elevation : 981 ft
- IATA code : CRW


KCRW - Yeager

CURRENT METAR :
  • 201954Z 00000KT 10SM SCT050 29/15 A3018 RMK AO2 SLP212 T02940150

EXPIRED METARs :
  • 201854Z 09003KT 10SM BKN050 BKN100 28/15 A3020 RMK AO2 SLP217 T02780150
  • 201754Z 20003KT 10SM SCT048 SCT100 27/15 A3021 RMK AO2 SLP222 60000 T02720150 10272 20167 58018

TAF KCRW
Valid from the 20 at 18:00 until the 21 at 18:00 UTC


201720Z 2018/2118 23004KT P6SM SCT040
FM210400 00000KT P6SM FEW060
FM210700 00000KT 6SM BR FEW040
FM211000 00000KT 5SM BR SCT001
FM211300 24006KT P6SM SCT040
No reported NOTAMs for that airfield.



MET'MAP, your aeronautical weather chart ! - Copyright ORBIFLY December 2007 - Disclaimer

ORBIFLY MET'MAP TEAM :

Programming & Development : Alexandra Zaïnal
Concept & Development : Baudouin d'Aumeries
Co-Development & Prog : Marc-Olivier Méhu
Technical & hardware support : Manuel Goepfert

Contact : metmap@orbifly.com




SOURCES & CREDITS :

   NOAA       Earth
Advisory